Arlington, VA (22201)

7:40 AM EDT on September 02, 2015 (GMT -0400)
Ashton Heights | | Change Station
CLOSE
Current Station
Personal Weather Station
Location: Arlington, VA
Elevation: 280 ft
Nearby Weather Stations

Elev 280 ft 38.88 °N, 77.10 °W | Updated 40 minutes ago

Partly Cloudy
Partly Cloudy
75.4 °F
Feels Like 73 °F
N
0.0
Wind Variable Wind from NW
Gusts 1.6 mph

Today
High -- | Low -- °F
--% Chance of Precip.
Yesterday
High -- | Low -- °F
Precip. -- in
6:37 AM 7:37 PM
Waning Gibbous, 81% visible
Pressure 30.04 in
Visibility 7.0 miles
Clouds Few 15000 ft
Overcast 25000 ft
Heat Index 73 °F
Dew Point 75 °F
Humidity 99%
Rainfall 0.00 in
Snow Depth Not available.
UV 0 out of 12
Pollen 10.30 out of 12
Air Quality Not available.
Flu Activity Not available.
METAR KDCA 021052Z 35005KT 7SM FEW150 OVC250 24/22 A3004 RMK AO2 SLP172 T02440217
Pressure 30.04 in
Visibility 7.0 miles
Clouds Few 15000 ft
Overcast 25000 ft
Heat Index 73 °F
Dew Point 75 °F
Humidity 99%
Rainfall 0.00 in
Snow Depth Not available.
UV 0 out of 12
Pollen 10.30 out of 12
Air Quality Not available.
Flu Activity Not available.
METAR KDCA 021052Z 35005KT 7SM FEW150 OVC250 24/22 A3004 RMK AO2 SLP172 T02440217

10-Day Weather Forecast

×

Almanac

Astronomy

Sep. 02, 2015 Rise Set
Actual Time
Civil Twilight
Nautical Twilight
Astronomical Twilight
Moon
Length of Visible Light
Length of Day
Tomorrow will be .
, % of the Moon is Illuminated

Today's Extremes

State Highs State Lows

Community

WunderPhotos

Upload Photos

1,851,736 photos uploaded!

WunderBlogs® & News

Nearby

Air Quality

  Air Quality AQ Index Pollutant
Not available.

Snow Depth

Station Depth Elevation

Earthquake Activity

City Distance Mag. Time & Date
Minimum magnitude displayed is 2.5.

Coastal Water Temperatures

Place Temperature

Stations

Nearby Weather Stations

Station Location Temp. Windchill Dew Point Humidity Wind Precip. Elev Updated Type